createdAt,value
2023-04-16T00:00:25.559Z,8.89
2023-04-16T00:03:27.528Z,8.77
2023-04-16T00:06:29.607Z,8.66
2023-04-16T00:09:32.792Z,8.70
2023-04-16T00:12:36.588Z,8.58
2023-04-16T00:15:38.400Z,8.57
2023-04-16T00:18:40.929Z,8.58
2023-04-16T00:21:42.850Z,8.55
2023-04-16T00:24:46.046Z,8.38
2023-04-16T00:27:48.509Z,8.29
2023-04-16T00:30:50.330Z,8.22
2023-04-16T00:33:52.143Z,8.20
2023-04-16T00:36:53.907Z,8.08
2023-04-16T00:39:57.074Z,8.02
2023-04-16T00:42:58.853Z,7.98
2023-04-16T00:46:04.593Z,7.91
2023-04-16T00:49:06.638Z,7.91
2023-04-16T00:52:08.607Z,7.81
2023-04-16T00:55:13.492Z,7.84
2023-04-16T00:58:15.987Z,7.83
2023-04-16T01:01:17.871Z,7.69
2023-04-16T01:04:20.755Z,7.69
2023-04-16T01:07:22.703Z,7.83
2023-04-16T01:10:26.033Z,7.73
2023-04-16T01:13:27.912Z,7.80
2023-04-16T01:16:29.784Z,7.79
2023-04-16T01:19:32.452Z,7.71
2023-04-16T01:22:35.618Z,7.78
2023-04-16T01:25:38.597Z,7.87
2023-04-16T01:28:40.579Z,7.88
2023-04-16T01:31:42.586Z,8.00
2023-04-16T01:34:45.541Z,8.21
2023-04-16T01:37:50.010Z,8.30
2023-04-16T01:40:57.091Z,8.22
2023-04-16T01:43:58.905Z,8.32
2023-04-16T01:47:01.525Z,8.20
2023-04-16T01:50:04.318Z,8.22
2023-04-16T01:53:07.564Z,8.10
2023-04-16T01:56:09.350Z,8.01
2023-04-16T01:59:12.387Z,7.86
2023-04-16T02:02:16.508Z,7.95
2023-04-16T02:05:19.508Z,7.89
2023-04-16T02:08:23.367Z,7.88
2023-04-16T02:11:25.379Z,7.92
2023-04-16T02:14:27.997Z,7.89
2023-04-16T02:17:30.302Z,7.73
2023-04-16T02:20:32.145Z,7.66
2023-04-16T02:23:35.666Z,7.47
2023-04-16T02:26:37.524Z,7.38
2023-04-16T02:29:39.340Z,7.38
2023-04-16T02:32:41.240Z,7.30
2023-04-16T02:35:43.257Z,7.29
2023-04-16T02:38:47.008Z,7.12
2023-04-16T02:41:48.844Z,7.12
2023-04-16T02:44:50.623Z,7.21
2023-04-16T02:47:52.565Z,7.21
2023-04-16T02:50:54.402Z,7.15
2023-04-16T02:53:58.591Z,7.02
2023-04-16T02:57:00.660Z,7.05
2023-04-16T03:00:02.486Z,6.99
2023-04-16T03:03:05.931Z,7.06
2023-04-16T03:06:07.828Z,6.92
2023-04-16T03:09:11.807Z,6.74
2023-04-16T03:12:13.708Z,6.81
2023-04-16T03:15:15.985Z,6.76
2023-04-16T03:18:18.082Z,6.56
2023-04-16T03:21:19.964Z,6.48
2023-04-16T03:24:23.468Z,6.44
2023-04-16T03:27:25.479Z,6.29
2023-04-16T03:30:28.145Z,6.22
2023-04-16T03:33:29.938Z,6.24
2023-04-16T03:36:32.674Z,6.20
2023-04-16T03:39:36.093Z,6.35
2023-04-16T03:42:37.937Z,6.43
2023-04-16T03:45:44.468Z,6.78
2023-04-16T03:48:46.685Z,7.02
2023-04-16T03:51:49.082Z,6.88
2023-04-16T03:54:52.425Z,6.94
2023-04-16T03:57:54.321Z,6.95
2023-04-16T04:00:56.981Z,6.94
2023-04-16T04:03:59.176Z,7.03
2023-04-16T04:07:02.012Z,7.10
2023-04-16T04:10:06.322Z,7.28
2023-04-16T04:13:08.245Z,7.26
2023-04-16T04:16:10.071Z,7.07
2023-04-16T04:19:11.896Z,6.96
2023-04-16T04:22:13.814Z,6.95
2023-04-16T04:25:17.808Z,6.88
2023-04-16T04:28:19.631Z,6.98
2023-04-16T04:31:22.079Z,7.14
2023-04-16T04:34:23.988Z,6.99
2023-04-16T04:37:26.016Z,7.16
2023-04-16T04:40:29.208Z,7.29
2023-04-16T04:43:31.973Z,7.37
2023-04-16T04:46:33.835Z,7.71
2023-04-16T04:49:36.027Z,8.26
2023-04-16T04:52:37.837Z,8.65
2023-04-16T04:55:41.039Z,8.83
2023-04-16T04:58:42.953Z,9.27
2023-04-16T05:01:44.816Z,9.32
2023-04-16T05:04:46.890Z,8.94
2023-04-16T05:07:48.828Z,8.53
2023-04-16T05:10:52.171Z,8.37
2023-04-16T05:13:54.021Z,8.20
2023-04-16T05:16:57.037Z,7.86
2023-04-16T05:20:00.653Z,7.58
2023-04-16T05:23:02.505Z,7.45
2023-04-16T05:26:05.780Z,7.48
2023-04-16T05:29:07.774Z,7.39
2023-04-16T05:32:09.803Z,7.42
2023-04-16T05:35:11.697Z,7.36
2023-04-16T05:38:13.904Z,7.46
2023-04-16T05:41:17.073Z,7.57
2023-04-16T05:44:18.884Z,7.67
2023-04-16T05:47:21.533Z,7.75
2023-04-16T05:50:23.468Z,7.86
2023-04-16T05:53:25.523Z,7.97
2023-04-16T05:56:28.886Z,8.11
2023-04-16T05:59:31.397Z,8.24
2023-04-16T06:02:33.410Z,8.35
2023-04-16T06:05:35.395Z,8.36
2023-04-16T06:08:37.280Z,8.24
2023-04-16T06:11:41.624Z,8.22
2023-04-16T06:14:43.437Z,8.31
2023-04-16T06:17:45.859Z,8.08
2023-04-16T06:20:47.914Z,8.22
2023-04-16T06:23:49.882Z,8.32
2023-04-16T06:26:54.769Z,8.41
2023-04-16T06:29:57.417Z,8.47
2023-04-16T06:32:59.481Z,8.59
2023-04-16T06:36:01.378Z,8.57
2023-04-16T06:39:03.269Z,8.77
2023-04-16T06:42:06.949Z,8.93
2023-04-16T06:45:09.696Z,9.08
2023-04-16T06:48:11.574Z,9.12
2023-04-16T06:51:13.492Z,9.23
2023-04-16T06:54:15.554Z,9.38
2023-04-16T06:57:18.945Z,9.54
2023-04-16T07:00:23.789Z,9.80
2023-04-16T07:03:26.783Z,9.98
2023-04-16T07:06:28.753Z,10.27
2023-04-16T07:09:31.546Z,10.37
2023-04-16T07:12:34.788Z,10.46
2023-04-16T07:15:36.683Z,10.45
2023-04-16T07:18:38.569Z,10.54
2023-04-16T07:21:42.111Z,10.61
2023-04-16T07:24:44.444Z,10.76
2023-04-16T07:27:47.628Z,10.83
2023-04-16T07:30:49.741Z,11.01
2023-04-16T07:33:51.715Z,11.05
2023-04-16T07:36:54.406Z,10.84
2023-04-16T07:39:57.763Z,11.41
2023-04-16T07:43:01.051Z,11.50
2023-04-16T07:46:02.966Z,11.57
2023-04-16T07:49:04.790Z,11.74
2023-04-16T07:52:07.421Z,11.79
2023-04-16T07:55:09.645Z,11.95
2023-04-16T07:58:12.872Z,12.22
2023-04-16T08:01:14.682Z,12.19
2023-04-16T08:04:23.301Z,10.83
2023-04-16T08:07:25.570Z,10.70
2023-04-16T08:10:28.009Z,10.98
2023-04-16T08:13:33.485Z,10.81
2023-04-16T08:16:35.561Z,11.02
2023-04-16T08:19:37.383Z,11.14
2023-04-16T08:22:39.428Z,11.00
2023-04-16T08:25:41.312Z,10.94
2023-04-16T08:28:44.448Z,11.31
2023-04-16T08:31:46.813Z,11.94
2023-04-16T08:34:48.845Z,12.58
2023-04-16T08:37:51.382Z,12.92
2023-04-16T08:40:55.148Z,13.27
2023-04-16T08:44:02.391Z,13.54
2023-04-16T08:47:09.130Z,13.40
2023-04-16T08:50:14.989Z,13.65
2023-04-16T08:53:19.318Z,13.68
2023-04-16T08:56:23.792Z,13.73
2023-04-16T08:59:29.492Z,13.87
2023-04-16T09:02:31.696Z,13.26
2023-04-16T09:05:34.967Z,12.74
2023-04-16T09:08:38.255Z,12.51
2023-04-16T09:11:40.121Z,12.68
2023-04-16T09:14:44.311Z,12.72
2023-04-16T09:17:46.193Z,13.14
2023-04-16T09:20:49.195Z,13.31
2023-04-16T09:23:52.958Z,13.82
2023-04-16T09:26:55.934Z,14.13
2023-04-16T09:29:59.408Z,13.49
2023-04-16T09:33:22.463Z,13.50
2023-04-16T09:36:24.729Z,13.52
2023-04-16T09:39:27.494Z,13.63
2023-04-16T09:42:31.815Z,13.63
2023-04-16T09:45:48.561Z,12.70
2023-04-16T09:48:51.263Z,13.29
2023-04-16T09:51:56.251Z,13.40
2023-04-16T09:55:00.000Z,13.41
2023-04-16T09:58:02.386Z,13.19
2023-04-16T10:01:08.409Z,13.34
2023-04-16T10:04:11.473Z,13.37
2023-04-16T10:07:13.493Z,13.54
2023-04-16T10:10:16.364Z,13.32
2023-04-16T10:13:19.236Z,13.26
2023-04-16T10:16:22.942Z,13.49
2023-04-16T10:19:25.202Z,13.56
2023-04-16T10:22:27.096Z,13.65
2023-04-16T10:25:29.253Z,13.73
2023-04-16T10:28:31.501Z,13.74
2023-04-16T10:31:36.925Z,13.71
2023-04-16T10:34:39.806Z,13.55
2023-04-16T10:37:43.095Z,13.98
2023-04-16T10:40:45.142Z,14.00
2023-04-16T10:43:48.565Z,14.12
2023-04-16T10:46:54.959Z,14.18
2023-04-16T10:49:58.450Z,14.63
2023-04-16T10:53:20.765Z,14.41
2023-04-16T10:56:26.913Z,14.89
2023-04-16T10:59:31.926Z,15.40
2023-04-16T11:02:35.317Z,15.04
2023-04-16T11:05:47.022Z,15.15
2023-04-16T11:08:55.085Z,15.00
2023-04-16T11:11:57.963Z,15.27
2023-04-16T11:15:01.854Z,15.70
2023-04-16T11:18:07.116Z,15.94
2023-04-16T11:21:10.606Z,15.59
2023-04-16T11:24:12.933Z,15.62
2023-04-16T11:27:16.198Z,15.93
2023-04-16T11:30:27.987Z,15.82
2023-04-16T11:33:31.611Z,15.65
2023-04-16T11:36:43.370Z,16.41
2023-04-16T11:39:49.847Z,16.29
2023-04-16T11:42:51.691Z,16.01
2023-04-16T11:45:57.913Z,15.72
2023-04-16T11:49:01.260Z,15.78
2023-04-16T11:52:03.901Z,16.18
2023-04-16T11:55:06.654Z,15.89
2023-04-16T11:58:12.919Z,16.13
2023-04-16T12:01:20.565Z,15.90
2023-04-16T12:04:25.727Z,15.98
2023-04-16T12:07:27.880Z,15.91
2023-04-16T12:10:30.707Z,16.11
2023-04-16T12:13:39.830Z,16.12
2023-04-16T12:16:41.878Z,16.48
2023-04-16T12:19:52.897Z,16.84
2023-04-16T12:22:57.098Z,16.09
2023-04-16T12:26:10.557Z,16.29
2023-04-16T12:29:17.325Z,16.57
2023-04-16T12:32:23.501Z,16.52
2023-04-16T12:35:34.344Z,16.52
2023-04-16T12:38:36.256Z,16.40
2023-04-16T12:41:40.358Z,16.84
2023-04-16T12:44:42.241Z,16.85
2023-04-16T12:47:44.051Z,16.91
2023-04-16T12:50:48.444Z,17.18
2023-04-16T12:53:50.371Z,17.17
2023-04-16T12:56:52.651Z,17.22
2023-04-16T12:59:55.177Z,16.59
2023-04-16T13:02:57.136Z,16.40
2023-04-16T13:06:02.348Z,16.34
2023-04-16T13:09:05.004Z,16.09
2023-04-16T13:12:07.548Z,16.38
2023-04-16T13:15:10.732Z,16.57
2023-04-16T13:18:12.570Z,16.52
2023-04-16T13:21:16.123Z,16.31
2023-04-16T13:24:17.953Z,16.37
2023-04-16T13:27:20.433Z,16.46
2023-04-16T13:30:25.568Z,16.50
2023-04-16T13:33:28.223Z,16.39
2023-04-16T13:36:33.482Z,16.25
2023-04-16T13:39:35.737Z,16.31
2023-04-16T13:42:38.711Z,16.47
2023-04-16T13:45:40.955Z,16.46
2023-04-16T13:48:42.857Z,16.24
2023-04-16T13:51:46.439Z,16.14
2023-04-16T13:54:48.564Z,16.37
2023-04-16T13:57:52.985Z,16.28
2023-04-16T14:00:56.303Z,16.34
2023-04-16T14:03:59.583Z,16.42
2023-04-16T14:07:02.885Z,16.54
2023-04-16T14:10:05.639Z,16.39
2023-04-16T14:13:08.526Z,16.20
2023-04-16T14:16:11.145Z,16.40
2023-04-16T14:19:14.195Z,16.43
2023-04-16T14:22:18.062Z,16.39
2023-04-16T14:25:21.042Z,16.30
2023-04-16T14:28:23.252Z,16.27
2023-04-16T14:31:26.870Z,16.35
2023-04-16T14:34:29.369Z,16.38
2023-04-16T14:37:36.294Z,16.35
2023-04-16T14:40:38.256Z,16.33
2023-04-16T14:43:41.576Z,16.21
2023-04-16T14:46:44.047Z,16.04
2023-04-16T14:49:46.933Z,16.19
2023-04-16T14:52:51.098Z,16.21
2023-04-16T14:55:53.716Z,16.12
2023-04-16T14:58:56.526Z,16.23
2023-04-16T15:01:59.363Z,16.25
2023-04-16T15:05:02.129Z,16.35
2023-04-16T15:08:09.034Z,16.32
2023-04-16T15:11:11.166Z,16.34
2023-04-16T15:14:13.721Z,16.25
2023-04-16T15:17:15.774Z,16.31
2023-04-16T15:20:18.794Z,16.22
2023-04-16T15:23:22.868Z,16.32
2023-04-16T15:26:26.234Z,16.29
2023-04-16T15:29:28.195Z,16.18
2023-04-16T15:32:31.434Z,16.39
2023-04-16T15:35:37.204Z,16.34
2023-04-16T15:38:40.906Z,16.05
2023-04-16T15:41:59.311Z,16.30
2023-04-16T15:45:03.272Z,16.23
2023-04-16T15:48:07.134Z,16.32
2023-04-16T15:51:09.565Z,16.21
2023-04-16T15:54:13.598Z,15.88
2023-04-16T15:57:16.665Z,16.14
2023-04-16T16:00:20.360Z,16.27
2023-04-16T16:03:25.093Z,16.30
2023-04-16T16:06:30.557Z,16.25
2023-04-16T16:09:35.697Z,16.14
2023-04-16T16:12:38.170Z,16.06
2023-04-16T16:15:41.803Z,15.65
2023-04-16T16:18:44.287Z,15.71
2023-04-16T16:21:47.760Z,15.46
2023-04-16T16:24:56.761Z,15.39
2023-04-16T16:28:00.409Z,14.99
2023-04-16T16:31:03.906Z,14.93
2023-04-16T16:34:06.252Z,14.71
2023-04-16T16:37:08.832Z,14.59
2023-04-16T16:40:12.691Z,14.39
2023-04-16T16:43:15.209Z,14.74
2023-04-16T16:46:17.887Z,14.56
2023-04-16T16:49:20.391Z,14.36
2023-04-16T16:52:24.295Z,14.34
2023-04-16T16:55:28.064Z,14.49
2023-04-16T16:58:30.899Z,14.74
2023-04-16T17:01:35.471Z,14.49
2023-04-16T17:04:38.972Z,14.51
2023-04-16T17:07:41.885Z,14.25
2023-04-16T17:10:46.489Z,14.44
2023-04-16T17:13:49.029Z,14.31
2023-04-16T17:16:51.585Z,14.43
2023-04-16T17:19:56.492Z,14.26
2023-04-16T17:22:59.993Z,14.11
2023-04-16T17:26:08.565Z,14.13
2023-04-16T17:29:11.764Z,14.22
2023-04-16T17:32:15.488Z,14.20
2023-04-16T17:35:18.305Z,14.19
2023-04-16T17:38:21.068Z,13.85
2023-04-16T17:41:25.765Z,14.06
2023-04-16T17:44:28.584Z,14.07
2023-04-16T17:47:31.980Z,13.97
2023-04-16T17:50:35.752Z,13.97
2023-04-16T17:53:39.818Z,13.77
2023-04-16T17:56:44.561Z,13.88
2023-04-16T17:59:47.294Z,13.94
2023-04-16T18:02:52.751Z,13.89
2023-04-16T18:05:55.744Z,13.91
2023-04-16T18:08:58.806Z,13.72
2023-04-16T18:12:02.552Z,13.85
2023-04-16T18:15:06.235Z,13.80
2023-04-16T18:18:08.755Z,13.71
2023-04-16T18:21:11.708Z,13.76
2023-04-16T18:24:14.232Z,13.77
2023-04-16T18:27:18.437Z,13.76
2023-04-16T18:30:26.418Z,13.84
2023-04-16T18:33:52.627Z,13.70
2023-04-16T18:36:52.706Z,13.71
2023-04-16T18:39:58.377Z,13.75
2023-04-16T18:43:01.973Z,13.79
2023-04-16T18:46:05.168Z,13.67
2023-04-16T18:49:07.433Z,13.76
2023-04-16T18:52:09.754Z,13.74
2023-04-16T18:55:13.100Z,13.77
2023-04-16T18:58:18.262Z,13.76
2023-04-16T19:01:21.486Z,13.62
2023-04-16T19:04:26.549Z,13.75
2023-04-16T19:07:29.158Z,13.67
2023-04-16T19:10:32.151Z,13.65
2023-04-16T19:13:39.153Z,13.43
2023-04-16T19:16:42.166Z,13.53
2023-04-16T19:19:45.669Z,13.57
2023-04-16T19:22:53.434Z,13.43
2023-04-16T19:25:57.519Z,13.53
2023-04-16T19:29:03.244Z,13.54
2023-04-16T19:32:07.072Z,13.55
2023-04-16T19:35:12.079Z,13.56
2023-04-16T19:38:15.116Z,13.31
2023-04-16T19:41:17.629Z,13.40
2023-04-16T19:44:23.683Z,13.24
2023-04-16T19:47:26.527Z,13.41
2023-04-16T19:50:28.636Z,13.39
2023-04-16T19:53:31.050Z,13.45
2023-04-16T19:56:33.694Z,13.33
2023-04-16T19:59:38.923Z,13.43
2023-04-16T20:02:41.835Z,13.61
2023-04-16T20:05:44.604Z,14.05
2023-04-16T20:08:47.021Z,14.31
2023-04-16T20:11:51.035Z,14.51
2023-04-16T20:14:55.216Z,14.54
2023-04-16T20:17:58.294Z,14.65
2023-04-16T20:21:03.992Z,14.67
2023-04-16T20:24:11.665Z,14.67
2023-04-16T20:27:14.654Z,14.57
2023-04-16T20:30:19.029Z,14.67
2023-04-16T20:33:20.888Z,14.60
2023-04-16T20:36:23.772Z,14.62
2023-04-16T20:39:28.200Z,14.63
2023-04-16T20:42:32.324Z,14.46
2023-04-16T20:45:40.885Z,14.45
2023-04-16T20:48:43.317Z,14.44
2023-04-16T20:51:45.537Z,14.47
2023-04-16T20:54:47.834Z,14.52
2023-04-16T20:57:49.980Z,14.47
2023-04-16T21:00:55.067Z,14.61
2023-04-16T21:03:57.196Z,14.49
2023-04-16T21:07:03.213Z,14.45
2023-04-16T21:10:05.866Z,14.50
2023-04-16T21:13:07.725Z,14.43
2023-04-16T21:16:12.562Z,14.48
2023-04-16T21:19:14.478Z,14.39
2023-04-16T21:22:16.643Z,14.26
2023-04-16T21:25:18.447Z,14.39
2023-04-16T21:28:20.498Z,14.15
2023-04-16T21:31:23.800Z,13.95
2023-04-16T21:34:26.426Z,13.46
2023-04-16T21:37:28.232Z,13.56
2023-04-16T21:40:30.124Z,13.35
2023-04-16T21:43:34.623Z,13.43
2023-04-16T21:46:37.844Z,13.39
2023-04-16T21:49:39.783Z,13.43
2023-04-16T21:52:46.691Z,13.40
2023-04-16T21:55:48.513Z,13.38
2023-04-16T21:58:50.408Z,13.44
2023-04-16T22:01:53.667Z,13.28
2023-04-16T22:04:55.780Z,13.11
2023-04-16T22:07:58.361Z,13.19
2023-04-16T22:11:02.002Z,13.36
2023-04-16T22:14:08.869Z,13.45
2023-04-16T22:17:11.988Z,13.59
2023-04-16T22:20:14.678Z,13.49
2023-04-16T22:23:16.596Z,13.50
2023-04-16T22:26:18.443Z,13.62
2023-04-16T22:29:21.268Z,13.54
2023-04-16T22:32:24.586Z,13.63
2023-04-16T22:35:26.516Z,13.65
2023-04-16T22:38:29.304Z,13.71
2023-04-16T22:41:31.143Z,13.63
2023-04-16T22:44:33.277Z,13.59
2023-04-16T22:47:36.530Z,13.27
2023-04-16T22:50:38.366Z,13.26
2023-04-16T22:53:40.496Z,12.97
2023-04-16T22:56:42.326Z,12.88
2023-04-16T22:59:44.231Z,13.02
2023-04-16T23:02:47.709Z,13.05
2023-04-16T23:05:49.549Z,12.70
2023-04-16T23:08:51.363Z,12.76
2023-04-16T23:11:53.294Z,12.77
2023-04-16T23:14:55.100Z,12.68
2023-04-16T23:17:58.704Z,12.82
2023-04-16T23:21:00.621Z,12.81
2023-04-16T23:24:03.483Z,12.97
2023-04-16T23:27:06.116Z,13.00
2023-04-16T23:30:08.857Z,13.01
2023-04-16T23:33:12.536Z,12.96
2023-04-16T23:36:14.367Z,12.87
2023-04-16T23:39:17.157Z,13.02
2023-04-16T23:42:18.992Z,12.88
2023-04-16T23:45:20.865Z,12.87
2023-04-16T23:48:24.568Z,12.84
2023-04-16T23:51:26.690Z,12.61
2023-04-16T23:54:29.119Z,12.57
2023-04-16T23:57:31.106Z,12.69
